Time;durP1;ratioP1;P1;durP2;ratioP2;P2;SDS_P1;SDS_P2;PMS_P1;PMS_P2;Temp;Humidity;BMP_temperature;BMP_pressure;BME280_temperature;BME280_humidity;BME280_pressure;Samples;Min_cycle;Max_cycle;Signal;HPM_P1;HPM_P2
2023/09/08 00:01:17;;;;;;;7.63;6.77;;;;;;;16.24;100.00;100310.34;5017238;28;20224;-72
2023/09/08 00:03:42;;;;;;;9.87;7.57;;;;;;;16.21;100.00;100308.00;5029967;28;20205;-72
2023/09/08 00:06:07;;;;;;;14.23;7.40;;;;;;;16.00;100.00;100305.25;5032198;28;20219;-71
2023/09/08 00:08:33;;;;;;;9.73;7.53;;;;;;;16.07;100.00;100295.22;5032447;28;20178;-72
2023/09/08 00:10:58;;;;;;;9.13;7.27;;;;;;;16.19;100.00;100298.69;5021620;28;20762;-71
2023/09/08 00:13:23;;;;;;;10.53;6.80;;;;;;;16.18;100.00;100300.44;5020331;28;20186;-71
2023/09/08 00:15:49;;;;;;;10.90;7.27;;;;;;;16.17;100.00;100298.78;5012241;28;20182;-71
2023/09/08 00:18:14;;;;;;;9.93;7.23;;;;;;;16.11;100.00;100300.06;5012500;28;20198;-72
2023/09/08 00:20:41;;;;;;;11.97;7.77;;;;;;;16.15;100.00;100298.09;5008757;28;20225;-72
2023/09/08 00:23:07;;;;;;;11.80;7.80;;;;;;;16.11;100.00;100294.88;5041513;28;20221;-72
2023/09/08 00:25:32;;;;;;;12.70;7.70;;;;;;;16.12;100.00;100295.69;5032121;28;20187;-71
2023/09/08 00:27:57;;;;;;;13.40;7.20;;;;;;;16.07;100.00;100293.44;5030612;28;20178;-71
2023/09/08 00:30:22;;;;;;;9.80;7.70;;;;;;;15.97;100.00;100293.28;5022035;28;20321;-72
2023/09/08 00:32:48;;;;;;;9.20;7.57;;;;;;;15.95;100.00;100290.00;4994238;28;20189;-72
2023/09/08 00:35:13;;;;;;;12.97;7.70;;;;;;;15.92;100.00;100290.22;5012305;28;20236;-72
2023/09/08 00:37:39;;;;;;;12.37;7.70;;;;;;;15.93;100.00;100291.88;5012247;28;20179;-72
2023/09/08 00:40:07;;;;;;;11.10;7.27;;;;;;;15.96;100.00;100289.06;5002001;28;20206;-74
2023/09/08 00:42:32;;;;;;;10.53;7.63;;;;;;;15.94;100.00;100290.94;5045668;28;20216;-72
2023/09/08 00:44:57;;;;;;;12.30;7.40;;;;;;;15.93;100.00;100299.66;5031881;28;20312;-70
2023/09/08 00:47:23;;;;;;;13.23;8.57;;;;;;;15.98;100.00;100287.19;5031850;28;20227;-72
2023/09/08 00:49:51;;;;;;;12.17;7.60;;;;;;;16.06;100.00;100286.63;5031750;28;20181;-71
2023/09/08 00:52:16;;;;;;;11.47;7.40;;;;;;;16.00;100.00;100283.66;5018358;28;20230;-71
2023/09/08 00:54:41;;;;;;;12.97;7.87;;;;;;;15.91;100.00;100288.56;5011944;28;20281;-71
2023/09/08 00:57:08;;;;;;;11.97;7.67;;;;;;;15.80;100.00;100289.34;5012314;28;20332;-71
2023/09/08 00:59:35;;;;;;;13.83;8.37;;;;;;;15.76;100.00;100285.31;5011815;28;20203;-73
2023/09/08 01:02:02;;;;;;;13.73;7.67;;;;;;;15.80;100.00;100291.09;5032768;28;20315;-71
2023/09/08 01:04:27;;;;;;;12.30;7.93;;;;;;;15.90;100.00;100293.88;5031943;28;20175;-71
2023/09/08 01:06:54;;;;;;;13.80;7.90;;;;;;;15.91;100.00;100303.31;5032397;28;20182;-73
2023/09/08 01:09:19;;;;;;;12.03;7.70;;;;;;;15.87;100.00;100296.72;5035802;28;20178;-72
2023/09/08 01:11:45;;;;;;;10.33;7.47;;;;;;;15.86;100.00;100302.84;5028939;28;20711;-72
2023/09/08 01:14:13;;;;;;;11.33;7.47;;;;;;;15.85;100.00;100301.16;5014434;28;20202;-72
2023/09/08 01:16:40;;;;;;;13.67;8.47;;;;;;;15.74;100.00;100307.94;5014570;28;20179;-72
2023/09/08 01:19:10;;;;;;;12.90;7.57;;;;;;;15.67;100.00;100301.56;5015798;28;20289;-73
2023/09/08 01:21:54;;;;;;;12.90;8.27;;;;;;;15.66;100.00;100297.31;5017057;28;20262;-73
2023/09/08 01:24:22;;;;;;;16.87;7.97;;;;;;;15.52;100.00;100294.88;5025606;28;20718;-72
2023/09/08 01:26:48;;;;;;;11.80;7.43;;;;;;;15.40;100.00;100297.41;5034045;28;20638;-71
2023/09/08 01:29:16;;;;;;;9.80;7.57;;;;;;;15.48;100.00;100296.88;5035356;28;20206;-72
2023/09/08 01:31:41;;;;;;;15.57;8.03;;;;;;;15.54;100.00;100303.38;5021262;28;20258;-72
2023/09/08 01:34:08;;;;;;;10.17;7.23;;;;;;;15.55;100.00;100302.44;5018611;28;20712;-71
2023/09/08 01:36:36;;;;;;;13.13;7.93;;;;;;;15.52;100.00;100303.50;5015359;28;20202;-71
2023/09/08 01:39:02;;;;;;;14.63;8.03;;;;;;;15.53;100.00;100299.97;5015352;28;20202;-72
2023/09/08 01:41:28;;;;;;;10.70;7.77;;;;;;;15.49;100.00;100303.69;5024425;28;20236;-72
2023/09/08 01:43:54;;;;;;;16.13;8.23;;;;;;;15.46;100.00;100303.94;5029013;28;20495;-73
2023/09/08 01:46:19;;;;;;;14.40;7.90;;;;;;;15.48;100.00;100295.09;5035003;28;20257;-73
2023/09/08 01:48:45;;;;;;;13.73;8.33;;;;;;;15.43;100.00;100302.41;5033868;28;20182;-72
2023/09/08 01:51:10;;;;;;;10.50;7.53;;;;;;;15.41;100.00;100299.06;5024070;28;20217;-73
2023/09/08 01:53:35;;;;;;;10.73;7.70;;;;;;;15.41;100.00;100298.25;5021237;28;20602;-72
2023/09/08 01:56:01;;;;;;;9.27;7.30;;;;;;;15.42;100.00;100292.13;5014752;28;20282;-72
2023/09/08 01:58:26;;;;;;;13.40;7.77;;;;;;;15.43;100.00;100296.38;5014917;28;20197;-72
2023/09/08 02:00:51;;;;;;;14.87;8.37;;;;;;;15.45;100.00;100290.13;5017607;28;20239;-70
2023/09/08 02:03:17;;;;;;;13.73;7.60;;;;;;;15.40;100.00;100294.81;5043306;28;20210;-72
2023/09/08 02:05:42;;;;;;;10.73;7.87;;;;;;;15.39;100.00;100295.75;5034516;28;20540;-70
2023/09/08 02:08:07;;;;;;;12.03;8.37;;;;;;;15.43;100.00;100291.19;5034461;28;20604;-72
2023/09/08 02:10:33;;;;;;;11.03;7.63;;;;;;;15.41;100.00;100293.88;5028516;28;20225;-73
2023/09/08 02:12:58;;;;;;;11.40;8.00;;;;;;;15.33;100.00;100289.25;5045224;28;20178;-73
2023/09/08 02:15:23;;;;;;;13.27;7.53;;;;;;;15.31;100.00;100288.53;5034778;28;20178;-72
2023/09/08 02:17:53;;;;;;;12.60;7.93;;;;;;;15.34;100.00;100284.91;5034455;28;20236;-72
2023/09/08 02:20:19;;;;;;;11.47;8.00;;;;;;;15.41;100.00;100290.47;5024787;28;20202;-72
2023/09/08 02:22:44;;;;;;;10.63;7.67;;;;;;;15.27;100.00;100294.03;5046689;28;20225;-73
2023/09/08 02:25:09;;;;;;;11.70;7.47;;;;;;;15.18;100.00;100290.34;5034132;28;20595;-72
2023/09/08 02:27:34;;;;;;;10.27;7.23;;;;;;;15.20;100.00;100295.44;5032711;28;20186;-73
2023/09/08 02:30:00;;;;;;;10.10;7.23;;;;;;;15.10;100.00;100288.28;5033777;28;20182;-71
2023/09/08 02:32:25;;;;;;;10.10;7.23;;;;;;;15.09;100.00;100291.00;5019537;28;20218;-73
2023/09/08 02:34:50;;;;;;;11.63;7.63;;;;;;;15.03;100.00;100294.84;5014307;28;20746;-70
2023/09/08 02:37:18;;;;;;;9.77;7.07;;;;;;;14.99;100.00;100286.44;5012913;28;20175;-74
2023/09/08 02:39:43;;;;;;;11.00;7.63;;;;;;;14.99;100.00;100289.03;5013856;28;20274;-71
2023/09/08 02:42:08;;;;;;;12.97;6.80;;;;;;;14.96;100.00;100288.47;5036283;28;20399;-72
2023/09/08 02:44:33;;;;;;;12.47;7.33;;;;;;;14.93;100.00;100293.84;5033794;28;20178;-72
2023/09/08 02:46:59;;;;;;;9.53;6.73;;;;;;;14.89;100.00;100298.41;5033991;28;20171;-73
2023/09/08 02:49:24;;;;;;;9.07;7.27;;;;;;;14.93;100.00;100299.03;5033732;28;20259;-72
2023/09/08 02:51:49;;;;;;;11.17;7.40;;;;;;;14.89;100.00;100295.81;5021820;28;20229;-73
2023/09/08 02:54:14;;;;;;;11.00;7.07;;;;;;;14.90;100.00;100299.25;5015587;28;20183;-72
2023/09/08 02:56:40;;;;;;;9.20;7.50;;;;;;;14.90;100.00;100294.06;5013844;28;20278;-71
2023/09/08 02:59:05;;;;;;;9.87;7.60;;;;;;;14.82;100.00;100295.41;5013872;28;20205;-72
2023/09/08 03:01:30;;;;;;;9.33;7.13;;;;;;;14.77;100.00;100300.09;5026357;28;21060;-72
2023/09/08 03:03:55;;;;;;;11.53;7.67;;;;;;;14.75;100.00;100295.94;5037229;28;20197;-72
2023/09/08 03:06:21;;;;;;;10.27;7.13;;;;;;;14.78;100.00;100293.16;5032358;28;20296;-72
2023/09/08 03:08:46;;;;;;;9.53;7.40;;;;;;;14.69;100.00;100295.41;5033579;28;20189;-73
2023/09/08 03:11:12;;;;;;;7.47;6.63;;;;;;;14.67;100.00;100293.88;5022728;28;20551;-71
2023/09/08 03:13:38;;;;;;;8.83;7.50;;;;;;;14.64;100.00;100296.66;5019153;28;20193;-71
2023/09/08 03:16:05;;;;;;;8.93;7.20;;;;;;;14.64;100.00;100300.06;5013616;28;20261;-72
2023/09/08 03:18:32;;;;;;;11.57;7.43;;;;;;;14.61;100.00;100294.25;5013648;28;20187;-73
2023/09/08 03:20:57;;;;;;;7.87;7.00;;;;;;;14.59;100.00;100294.38;5010607;28;20720;-73
2023/09/08 03:23:23;;;;;;;11.83;7.67;;;;;;;14.53;100.00;100290.44;5020284;28;20229;-73
2023/09/08 03:25:48;;;;;;;8.20;7.00;;;;;;;14.54;100.00;100293.88;5013061;28;20262;-72
2023/09/08 03:28:14;;;;;;;7.33;6.23;;;;;;;14.53;100.00;100289.63;5012290;28;20181;-73
2023/09/08 03:30:40;;;;;;;10.13;7.07;;;;;;;14.46;100.00;100291.81;4984746;28;20636;-71
2023/09/08 03:33:05;;;;;;;10.13;7.20;;;;;;;14.46;100.00;100291.81;5011374;28;20183;-72
2023/09/08 03:35:30;;;;;;;7.90;6.90;;;;;;;14.39;100.00;100292.31;5013118;28;20237;-72
2023/09/08 03:37:55;;;;;;;8.17;7.37;;;;;;;14.33;100.00;100290.97;5013094;28;20631;-72
2023/09/08 03:40:21;;;;;;;8.27;6.93;;;;;;;14.29;100.00;100285.19;5005184;28;20194;-72
2023/09/08 03:42:46;;;;;;;9.20;7.20;;;;;;;14.28;100.00;100290.47;5025453;28;20237;-73
2023/09/08 03:45:11;;;;;;;10.67;7.90;;;;;;;14.34;100.00;100290.06;5013163;28;20630;-74
2023/09/08 03:47:36;;;;;;;9.37;7.20;;;;;;;14.31;100.00;100292.81;5013330;28;20189;-71
2023/09/08 03:50:02;;;;;;;8.83;6.90;;;;;;;14.22;100.00;100286.50;5011492;28;20575;-71
2023/09/08 03:52:27;;;;;;;9.03;7.00;;;;;;;14.15;100.00;100290.44;5001658;28;20218;-71
2023/09/08 03:54:52;;;;;;;8.73;7.93;;;;;;;14.17;100.00;100291.16;5012936;28;20637;-71
2023/09/08 03:57:18;;;;;;;8.40;7.30;;;;;;;14.16;100.00;100289.50;5012872;28;20191;-73
2023/09/08 03:59:43;;;;;;;10.43;7.97;;;;;;;14.16;100.00;100292.09;5012696;28;20206;-72
2023/09/08 04:02:08;;;;;;;9.10;8.20;;;;;;;14.17;100.00;100291.97;5017434;28;20685;-72
2023/09/08 04:04:33;;;;;;;9.27;8.37;;;;;;;14.15;100.00;100299.03;5011762;28;20190;-72
2023/09/08 04:06:59;;;;;;;9.90;8.50;;;;;;;14.13;100.00;100306.06;5012707;28;20254;-72
2023/09/08 04:09:24;;;;;;;8.43;7.63;;;;;;;14.15;100.00;100304.22;5012832;28;20182;-72
2023/09/08 04:11:49;;;;;;;8.63;7.77;;;;;;;14.15;100.00;100300.78;5018416;28;20774;-72
2023/09/08 04:14:14;;;;;;;9.60;8.20;;;;;;;14.17;100.00;100306.69;5034366;28;20189;-73
2023/09/08 04:16:40;;;;;;;8.73;7.83;;;;;;;14.13;100.00;100302.66;5032411;28;20307;-74
2023/09/08 04:19:05;;;;;;;7.87;7.17;;;;;;;14.01;100.00;100299.94;5032085;28;20205;-73
2023/09/08 04:21:30;;;;;;;9.57;8.67;;;;;;;14.00;100.00;100310.38;5020845;28;20229;-73
2023/09/08 04:23:55;;;;;;;9.10;7.87;;;;;;;13.93;100.00;100312.56;5016403;28;20266;-72
2023/09/08 04:26:21;;;;;;;13.00;8.27;;;;;;;13.91;100.00;100309.22;5012321;28;20179;-71
2023/09/08 04:28:47;;;;;;;10.53;8.07;;;;;;;14.01;100.00;100310.28;5012640;28;20538;-72
2023/09/08 04:31:12;;;;;;;9.70;8.47;;;;;;;14.05;100.00;100310.91;5005962;28;20314;-72
2023/09/08 04:33:38;;;;;;;8.53;7.73;;;;;;;14.07;100.00;100310.81;5011041;28;20186;-72
2023/09/08 04:36:04;;;;;;;10.30;8.43;;;;;;;14.07;100.00;100314.22;5012310;28;20175;-73
2023/09/08 04:38:29;;;;;;;9.93;7.90;;;;;;;14.04;100.00;100306.66;5012219;28;20185;-73
2023/09/08 04:40:54;;;;;;;9.23;8.20;;;;;;;14.01;100.00;100314.63;5008624;28;20222;-73
2023/09/08 04:43:19;;;;;;;15.93;8.90;;;;;;;14.00;100.00;100313.81;5019588;28;20183;-73
2023/09/08 04:45:45;;;;;;;9.17;8.27;;;;;;;13.95;100.00;100308.09;5010704;28;20178;-73
2023/09/08 04:48:10;;;;;;;9.17;8.30;;;;;;;14.02;100.00;100313.72;5012374;28;20182;-72
2023/09/08 04:50:35;;;;;;;9.93;8.10;;;;;;;14.09;100.00;100308.94;5006288;28;20225;-72
2023/09/08 04:53:00;;;;;;;9.80;7.97;;;;;;;14.06;100.00;100312.56;5010055;28;20273;-72
2023/09/08 04:55:26;;;;;;;9.40;7.90;;;;;;;14.06;100.00;100317.75;5012157;28;20185;-71
2023/09/08 04:57:51;;;;;;;11.23;8.50;;;;;;;14.06;100.00;100319.50;5011924;28;20528;-73
2023/09/08 05:00:17;;;;;;;14.87;9.03;;;;;;;14.01;100.00;100327.56;5003790;28;20210;-71
2023/09/08 05:02:43;;;;;;;9.70;8.43;;;;;;;14.04;100.00;100322.16;5024710;28;20689;-71
2023/09/08 05:05:08;;;;;;;10.00;8.77;;;;;;;14.06;100.00;100327.28;5011908;28;20174;-71
2023/09/08 05:07:33;;;;;;;11.03;8.77;;;;;;;14.06;100.00;100327.28;5011821;28;20189;-71
2023/09/08 05:09:58;;;;;;;12.93;9.10;;;;;;;14.10;100.00;100324.34;5011548;28;20175;-71
2023/09/08 05:12:24;;;;;;;11.10;9.00;;;;;;;14.14;100.00;100323.25;5016927;28;20645;-71
2023/09/08 05:14:49;;;;;;;10.10;8.93;;;;;;;14.22;100.00;100325.31;5011687;28;20179;-72
2023/09/08 05:17:14;;;;;;;12.00;8.87;;;;;;;14.27;100.00;100327.59;5011897;28;20182;-73
2023/09/08 05:19:39;;;;;;;8.70;7.73;;;;;;;14.31;100.00;100329.91;5011354;28;20659;-72
2023/09/08 05:22:07;;;;;;;9.83;8.83;;;;;;;14.38;100.00;100330.31;5016120;28;20233;-71
2023/09/08 05:24:32;;;;;;;10.80;9.17;;;;;;;14.30;100.00;100329.97;5011582;28;20202;-71
2023/09/08 05:26:58;;;;;;;9.87;8.77;;;;;;;14.36;100.00;100334.75;5011944;28;20538;-71
2023/09/08 05:29:23;;;;;;;9.73;8.83;;;;;;;14.38;100.00;100337.25;5011729;28;20689;-72
2023/09/08 05:31:48;;;;;;;9.97;8.93;;;;;;;14.42;100.00;100333.53;5014792;28;20225;-72
2023/09/08 05:34:13;;;;;;;9.00;8.03;;;;;;;14.48;100.00;100331.34;5013069;28;20187;-72
2023/09/08 05:36:40;;;;;;;11.67;9.43;;;;;;;14.53;100.00;100337.03;5011787;28;20705;-72
2023/09/08 05:39:05;;;;;;;10.33;8.30;;;;;;;14.53;100.00;100333.63;5010956;28;20203;-71
2023/09/08 05:41:31;;;;;;;8.63;7.80;;;;;;;14.61;100.00;100339.13;5019536;28;20321;-71
2023/09/08 05:43:57;;;;;;;9.63;7.90;;;;;;;14.68;100.00;100339.56;5004444;28;20179;-71
2023/09/08 05:46:23;;;;;;;10.20;8.83;;;;;;;14.68;100.00;100349.91;5011747;28;20195;-72
2023/09/08 05:48:48;;;;;;;10.13;8.37;;;;;;;14.75;100.00;100351.16;5025823;28;20533;-71
2023/09/08 05:51:15;;;;;;;12.23;8.97;;;;;;;14.79;100.00;100350.00;5011138;28;20313;-71
2023/09/08 05:53:40;;;;;;;9.17;8.07;;;;;;;14.90;100.00;100349.28;5017314;28;20654;-71
2023/09/08 05:56:06;;;;;;;9.73;7.73;;;;;;;15.00;100.00;100349.47;5013563;28;20191;-71
2023/09/08 05:58:31;;;;;;;15.17;8.77;;;;;;;15.15;100.00;100347.56;5015304;28;20253;-71
2023/09/08 06:00:57;;;;;;;12.83;7.73;;;;;;;15.31;100.00;100350.72;5009571;28;20235;-70
2023/09/08 06:03:22;;;;;;;9.97;7.30;;;;;;;15.45;100.00;100351.53;5012426;28;20202;-71
2023/09/08 06:05:47;;;;;;;9.33;8.17;;;;;;;15.57;100.00;100355.03;5014638;28;20835;-71
2023/09/08 06:08:13;;;;;;;11.67;7.73;;;;;;;15.70;100.00;100349.78;4997407;28;20183;-71
2023/09/08 06:10:38;;;;;;;12.87;8.90;;;;;;;15.82;100.00;100347.13;5009127;28;20226;-71
2023/09/08 06:13:04;;;;;;;10.67;8.10;;;;;;;15.93;100.00;100343.75;5025256;28;20670;-71
2023/09/08 06:15:29;;;;;;;12.43;8.70;;;;;;;16.05;100.00;100342.06;5014685;28;20557;-71
2023/09/08 06:17:55;;;;;;;10.17;8.70;;;;;;;16.22;100.00;100345.97;5014336;28;20185;-71
2023/09/08 06:20:21;;;;;;;9.97;8.53;;;;;;;16.34;100.00;100348.63;5006915;28;20199;-71
2023/09/08 06:22:46;;;;;;;8.10;7.30;;;;;;;16.44;100.00;100347.78;5012754;28;20701;-72
2023/09/08 06:25:11;;;;;;;13.13;8.67;;;;;;;16.50;100.00;100351.69;5014260;28;20175;-71
2023/09/08 06:27:37;;;;;;;14.10;8.33;;;;;;;16.69;100.00;100340.72;5013380;28;20262;-68
2023/09/08 06:30:02;;;;;;;8.93;7.97;;;;;;;16.88;100.00;100345.34;5010915;28;20183;-71
2023/09/08 06:32:28;;;;;;;13.70;8.33;;;;;;;17.02;100.00;100344.31;5017147;28;20206;-72
2023/09/08 06:34:53;;;;;;;16.57;8.63;;;;;;;17.08;100.00;100349.03;5008763;28;20189;-72
2023/09/08 06:37:18;;;;;;;11.80;9.23;;;;;;;17.41;100.00;100349.09;5013266;28;20194;-72
2023/09/08 06:39:43;;;;;;;11.40;8.33;;;;;;;17.97;100.00;100348.06;5009055;28;20398;-73
2023/09/08 06:42:09;;;;;;;10.47;7.90;;;;;;;19.10;100.00;100349.13;5005217;28;20222;-71
2023/09/08 06:44:34;;;;;;;9.40;7.20;;;;;;;20.20;100.00;100351.66;5012523;28;20269;-71
2023/09/08 06:46:59;;;;;;;11.07;7.10;;;;;;;21.51;100.00;100349.03;5014325;28;20167;-72
2023/09/08 06:49:24;;;;;;;9.40;6.80;;;;;;;23.77;100.00;100350.72;5012572;28;20237;-70
2023/09/08 06:51:50;;;;;;;12.20;6.60;;;;;;;25.55;97.45;100354.13;5017455;28;20241;-72
2023/09/08 06:54:15;;;;;;;6.47;5.07;;;;;;;26.56;84.54;100359.16;5012321;28;20182;-71
2023/09/08 06:56:40;;;;;;;9.02;5.30;;;;;;;28.68;64.99;100359.72;5014091;28;20175;-70
2023/09/08 06:59:05;;;;;;;10.48;5.15;;;;;;;28.70;59.89;100368.25;5013765;28;20195;-70
2023/09/08 07:01:31;;;;;;;12.73;4.53;;;;;;;28.89;54.67;100360.59;5007771;28;20222;-70
2023/09/08 07:03:56;;;;;;;9.18;4.90;;;;;;;28.32;57.22;100360.72;5011780;28;20206;-71
2023/09/08 07:06:22;;;;;;;5.88;4.18;;;;;;;26.86;70.97;100351.25;5013103;28;20201;-71
2023/09/08 07:08:50;;;;;;;6.00;4.13;;;;;;;26.70;71.53;100347.75;5013375;28;20595;-70
2023/09/08 07:11:15;;;;;;;5.13;4.63;;;;;;;26.17;77.73;100350.50;5005856;28;20226;-71
2023/09/08 07:13:40;;;;;;;6.05;4.53;;;;;;;26.85;69.95;100345.13;5000200;28;20197;-71
2023/09/08 07:16:05;;;;;;;4.90;4.18;;;;;;;27.78;66.83;100348.94;5021704;28;20538;-71
2023/09/08 07:18:35;;;;;;;7.90;4.70;;;;;;;27.84;62.02;100350.81;5007987;28;20204;-71
2023/09/08 07:21:00;;;;;;;6.95;4.68;;;;;;;27.74;60.74;100351.13;5003443;28;20289;-72
2023/09/08 07:23:26;;;;;;;5.60;4.80;;;;;;;26.89;66.22;100356.13;5002969;28;20223;-72
2023/09/08 07:25:51;;;;;;;4.88;4.10;;;;;;;27.62;61.74;100352.66;5013667;28;20190;-71
2023/09/08 07:28:17;;;;;;;7.43;4.97;;;;;;;28.21;59.02;100359.44;5013383;28;20214;-70
2023/09/08 07:30:42;;;;;;;5.55;4.28;;;;;;;28.07;59.08;100355.06;4988075;28;20225;-70
2023/09/08 07:33:08;;;;;;;9.13;4.75;;;;;;;28.74;55.71;100363.41;5023109;28;20206;-71
2023/09/08 07:35:38;;;;;;;5.05;4.55;;;;;;;28.36;55.07;100364.63;5013336;28;20221;-72
2023/09/08 07:38:03;;;;;;;7.68;5.00;;;;;;;28.22;56.18;100370.81;5012823;28;20590;-71
2023/09/08 07:40:29;;;;;;;6.47;4.88;;;;;;;28.06;56.49;100371.94;5008640;28;20245;-72
2023/09/08 07:42:54;;;;;;;5.25;4.53;;;;;;;29.11;51.30;100371.88;5030975;28;20190;-71
2023/09/08 07:45:19;;;;;;;7.00;4.80;;;;;;;29.53;49.04;100369.16;5032941;28;20186;-71
2023/09/08 07:47:45;;;;;;;6.93;4.97;;;;;;;29.68;48.19;100369.75;5032288;28;20235;-72
2023/09/08 07:50:17;;;;;;;7.85;4.63;;;;;;;29.50;49.40;100369.53;5022490;28;20194;-71
2023/09/08 07:52:42;;;;;;;6.97;4.82;;;;;;;29.62;48.83;100373.22;5025390;28;20213;-70
2023/09/08 07:55:07;;;;;;;10.95;4.38;;;;;;;30.10;47.35;100375.69;5013133;28;20215;-71
2023/09/08 07:57:33;;;;;;;6.15;4.45;;;;;;;30.71;44.49;100379.03;5011676;28;20648;-71
2023/09/08 07:59:58;;;;;;;5.28;4.82;;;;;;;29.85;47.25;100378.13;5012434;28;20194;-70
2023/09/08 08:02:23;;;;;;;6.45;4.20;;;;;;;29.19;49.82;100384.13;5017287;28;20233;-70
2023/09/08 08:04:48;;;;;;;8.13;4.25;;;;;;;30.10;47.24;100377.53;5011317;28;20587;-71
2023/09/08 08:07:14;;;;;;;4.25;3.85;;;;;;;29.54;49.43;100376.88;5012333;28;20186;-70
2023/09/08 08:09:39;;;;;;;4.90;4.38;;;;;;;29.02;51.35;100373.88;5012679;28;20193;-70
2023/09/08 08:12:05;;;;;;;5.35;4.22;;;;;;;30.13;47.58;100377.13;5033090;28;20253;-71
2023/09/08 08:14:30;;;;;;;6.90;4.07;;;;;;;31.80;43.42;100372.09;5032452;28;20174;-71
2023/09/08 08:16:55;;;;;;;4.50;3.80;;;;;;;33.56;39.00;100381.28;5032073;28;20182;-71
2023/09/08 08:19:21;;;;;;;9.48;3.92;;;;;;;33.13;39.16;100385.81;5032243;28;20300;-70
2023/09/08 08:21:46;;;;;;;5.57;4.30;;;;;;;32.26;39.23;100380.69;5019982;28;20289;-71
2023/09/08 08:24:12;;;;;;;9.40;5.22;;;;;;;32.44;39.71;100378.03;5011402;28;20615;-71
2023/09/08 08:26:37;;;;;;;6.43;4.05;;;;;;;33.42;38.15;100382.56;5012316;28;20187;-70
2023/09/08 08:29:03;;;;;;;4.85;4.25;;;;;;;32.92;38.09;100383.63;5012611;28;20633;-70
2023/09/08 08:31:28;;;;;;;7.22;4.50;;;;;;;32.05;40.28;100380.03;5014366;28;20240;-69
2023/09/08 08:33:53;;;;;;;8.68;4.22;;;;;;;32.45;39.48;100381.50;5036081;28;20177;-70
2023/09/08 08:36:19;;;;;;;5.38;4.20;;;;;;;32.43;38.92;100373.72;5031768;28;20170;-72
2023/09/08 08:38:44;;;;;;;6.20;4.38;;;;;;;30.88;43.10;100378.56;5030972;28;20672;-71
2023/09/08 08:41:10;;;;;;;6.80;4.43;;;;;;;30.18;44.49;100365.88;5013238;28;20233;-70
2023/09/08 08:43:37;;;;;;;8.18;4.72;;;;;;;29.84;46.74;100365.06;5018272;28;20179;-69
2023/09/08 08:46:03;;;;;;;7.28;4.35;;;;;;;31.17;44.18;100366.59;5012043;28;20236;-69
2023/09/08 08:48:29;;;;;;;5.65;4.40;;;;;;;31.62;41.88;100367.50;5012217;28;20519;-70
2023/09/08 08:50:56;;;;;;;11.20;4.80;;;;;;;32.34;39.58;100367.09;5015544;28;20298;-71
2023/09/08 08:53:22;;;;;;;6.20;4.30;;;;;;;31.68;41.34;100366.66;5039778;28;20178;-71
2023/09/08 08:55:50;;;;;;;7.00;4.32;;;;;;;31.91;39.89;100368.72;5031441;28;20194;-70
2023/09/08 08:58:20;;;;;;;5.55;4.20;;;;;;;32.63;39.74;100370.03;5031657;28;20228;-70
2023/09/08 09:00:46;;;;;;;5.07;4.30;;;;;;;32.50;38.03;100363.84;5020830;28;20238;-69
2023/09/08 09:03:12;;;;;;;5.13;4.63;;;;;;;33.09;37.93;100363.28;5021018;28;20202;-71
2023/09/08 09:05:37;;;;;;;6.97;4.65;;;;;;;33.09;38.58;100357.16;5011383;28;20281;-69
2023/09/08 09:08:04;;;;;;;6.57;3.90;;;;;;;34.32;36.21;100367.25;5012073;28;20274;-71
2023/09/08 09:10:31;;;;;;;7.57;4.55;;;;;;;35.31;33.80;100364.59;5008844;28;20229;-71
2023/09/08 09:12:56;;;;;;;8.32;4.40;;;;;;;34.11;35.97;100368.69;5042662;28;20261;-71
2023/09/08 09:15:34;;;;;;;6.13;4.47;;;;;;;34.34;34.53;100359.84;5031509;28;20297;-71
2023/09/08 09:18:07;;;;;;;9.80;4.82;;;;;;;34.53;34.85;100362.38;5031237;28;20166;-71
2023/09/08 09:20:33;;;;;;;7.75;4.70;;;;;;;34.80;34.24;100362.63;5020998;28;20221;-71
2023/09/08 09:22:58;;;;;;;9.48;4.53;;;;;;;33.70;36.00;100371.19;5009745;28;20229;-70
2023/09/08 09:25:27;;;;;;;11.82;4.53;;;;;;;34.87;34.52;100368.66;5010389;28;20697;-70
2023/09/08 09:27:58;;;;;;;8.70;4.50;;;;;;;35.94;32.04;100368.03;5011758;28;20193;-70
2023/09/08 09:30:24;;;;;;;5.00;3.80;;;;;;;35.99;32.33;100376.13;5010746;28;20283;-70
2023/09/08 09:33:04;;;;;;;5.70;4.40;;;;;;;35.46;32.25;100370.22;5035765;28;20179;-70
2023/09/08 09:35:52;;;;;;;5.03;4.10;;;;;;;35.57;32.30;100367.72;5035504;28;20190;-70
2023/09/08 09:38:19;;;;;;;5.55;4.13;;;;;;;36.70;30.59;100373.78;5029165;28;20309;-70
2023/09/08 09:40:48;;;;;;;4.97;4.10;;;;;;;35.99;30.83;100367.28;5030170;28;20228;-70
2023/09/08 09:43:15;;;;;;;8.25;3.97;;;;;;;36.14;31.58;100366.69;5044010;28;20186;-69
2023/09/08 09:45:41;;;;;;;6.90;3.78;;;;;;;35.19;33.61;100365.50;5035254;28;20178;-70
2023/09/08 09:48:08;;;;;;;5.03;3.78;;;;;;;34.85;34.31;100359.25;5035060;28;20218;-70
2023/09/08 09:50:39;;;;;;;6.28;4.28;;;;;;;33.93;34.94;100359.75;5024645;28;20225;-71
2023/09/08 09:53:10;;;;;;;7.60;4.55;;;;;;;35.71;33.06;100364.47;5025003;28;20186;-71
2023/09/08 09:55:38;;;;;;;5.55;4.10;;;;;;;34.62;34.11;100360.13;5015025;28;20186;-70
2023/09/08 09:58:04;;;;;;;6.70;4.28;;;;;;;35.46;32.96;100356.03;5015091;28;20206;-69
2023/09/08 10:00:33;;;;;;;6.30;3.85;;;;;;;35.46;32.72;100348.81;5010491;28;20372;-70
2023/09/08 10:02:59;;;;;;;4.47;4.07;;;;;;;35.17;32.74;100345.41;5045606;28;20304;-70
2023/09/08 10:05:25;;;;;;;5.30;3.85;;;;;;;36.70;32.21;100349.69;5034863;28;20262;-70
2023/09/08 10:07:51;;;;;;;7.97;4.57;;;;;;;37.37;29.63;100353.81;5034420;28;20186;-72
2023/09/08 10:10:17;;;;;;;4.93;4.18;;;;;;;38.36;28.92;100345.28;5024373;28;20186;-71
2023/09/08 10:12:52;;;;;;;11.43;4.40;;;;;;;39.94;26.94;100354.75;5026781;28;20657;-71
2023/09/08 10:15:20;;;;;;;7.70;4.07;;;;;;;36.94;29.62;100353.72;5014516;28;20186;-71
2023/09/08 10:17:51;;;;;;;13.48;4.13;;;;;;;36.75;29.62;100342.47;5014643;28;20681;-71
2023/09/08 10:20:17;;;;;;;4.97;3.95;;;;;;;36.83;30.15;100344.72;5006709;28;20257;-70
2023/09/08 10:22:43;;;;;;;7.95;3.67;;;;;;;37.56;29.82;100340.81;5046970;28;20631;-69
2023/09/08 10:25:11;;;;;;;9.77;4.40;;;;;;;35.76;32.32;100334.28;5034306;28;20691;-70
2023/09/08 10:27:37;;;;;;;5.05;3.83;;;;;;;37.05;30.14;100346.53;5034034;28;20186;-69
2023/09/08 10:30:05;;;;;;;5.75;4.03;;;;;;;35.48;32.03;100333.34;5027846;28;20201;-70
2023/09/08 10:32:32;;;;;;;8.30;3.65;;;;;;;34.84;32.80;100328.22;5048501;28;20197;-70
2023/09/08 10:34:59;;;;;;;13.55;4.18;;;;;;;33.02;36.09;100327.13;5033797;28;20289;-70
2023/09/08 10:37:27;;;;;;;5.13;4.63;;;;;;;31.63;39.00;100323.91;5031809;28;20598;-71
2023/09/08 10:39:53;;;;;;;7.25;4.47;;;;;;;30.31;43.52;100315.44;5029654;28;20305;-70
2023/09/08 10:42:20;;;;;;;7.82;4.35;;;;;;;28.71;52.74;100319.63;5019983;28;20232;-71
2023/09/08 10:44:49;;;;;;;8.48;4.80;;;;;;;27.59;59.86;100310.78;5014016;28;20193;-70
2023/09/08 10:47:18;;;;;;;5.10;4.70;;;;;;;27.36;60.86;100302.03;5014293;28;20186;-70
2023/09/08 10:49:44;;;;;;;5.32;4.82;;;;;;;27.44;67.36;100294.97;5013686;28;20244;-70
2023/09/08 10:52:10;;;;;;;6.18;4.80;;;;;;;27.46;65.78;100304.38;5025324;28;20673;-71
2023/09/08 10:54:48;;;;;;;8.38;4.75;;;;;;;26.97;68.52;100303.25;5032489;28;20208;-70
2023/09/08 10:57:15;;;;;;;8.27;5.07;;;;;;;27.10;71.00;100299.91;5033780;28;20182;-70
2023/09/08 10:59:51;;;;;;;5.00;4.50;;;;;;;26.90;73.20;100294.44;5033629;28;20688;-68
2023/09/08 11:02:35;;;;;;;5.72;5.22;;;;;;;26.68;73.19;100299.66;5020244;28;20229;-71
2023/09/08 11:05:02;;;;;;;9.57;5.15;;;;;;;26.62;73.75;100294.28;5013874;28;20193;-71
2023/09/08 11:07:27;;;;;;;5.35;4.85;;;;;;;26.99;77.43;100289.84;5013878;28;20936;-72
2023/09/08 11:09:52;;;;;;;5.15;4.65;;;;;;;27.08;73.54;100290.56;5013631;28;20179;-70
2023/09/08 11:12:18;;;;;;;5.22;4.35;;;;;;;27.04;74.06;100287.47;5026586;28;20297;-71